Skip Navigation LinksHome page > Weather > Current weather Skip Navigation Links

Current Weather

Ben-Gurion Intl Apt, Tel Aviv, Israel

For information only: do not use for flight planning or navigation.
Latest weather
Observation time Wednesday, October 27, 2021 9:50 AM IDT
Local time Wednesday, October 27, 2021 10:15 AM IDT
Flight conditions Visual Meteorological Conditions
Winds
Wind direction North (360°)
Winds variable from 330° to 40°
Wind speed 7 mph
Visibility 6.2 mi.
Sky condition
Ceiling unlimited
Sky clear
Temperature 75°F
Dewpoint 61°F
Altimeter 30.03 in.Hg
Derived measurements
Relative humidity 61%
Density altitude 1330 ft.
Remarks
Ceiling and visibility OK.
No significant changes expected in the next two hours.
METAR LLBG 270650Z 36006KT 330V040 CAVOK 24/16 Q1017 NOSIG

Settings

Location code

InnerDrive.Weather 4.0.6770.0 Release CLR 4.0.30319.42000
Copyright ©2018 Inner Drive Technology. All rights reserved. Portions Copyright ©1986-2018 David Braverman.

Find weather

Site navigation


Skip Navigation Links

Place info

Page info

PayPal - The safer, easier way to pay online!

Return home.

Copyright ©2021 Inner Drive Technology. Purveyors of fine, hand-crafted computer software. Page printed 2021-10-27T07:15:18 UTC.